Time;durP1;ratioP1;P1;durP2;ratioP2;P2;SDS_P1;SDS_P2;PMS_P1;PMS_P2;Temp;Humidity;BMP_temperature;BMP_pressure;BME280_temperature;BME280_humidity;BME280_pressure;Samples;Min_cycle;Max_cycle;Signal;HPM_P1;HPM_P2
2023/09/18 00:00:49;;;;;;;12.50;9.27;;;;;;;10.79;nan;99852.34;5096075;27;20047;-68
2023/09/18 00:03:15;;;;;;;15.38;8.18;;;;;;;10.83;nan;99882.34;5095759;27;20239;-68
2023/09/18 00:05:40;;;;;;;22.10;10.85;;;;;;;10.90;nan;99859.59;5094442;27;20047;-69
2023/09/18 00:08:06;;;;;;;13.40;8.20;;;;;;;10.96;nan;99860.97;5102532;27;20061;-68
2023/09/18 00:10:31;;;;;;;14.65;8.60;;;;;;;11.01;nan;99865.03;5088960;27;20042;-68
2023/09/18 00:12:57;;;;;;;16.35;8.85;;;;;;;11.08;nan;99865.47;5111588;27;20045;-68
2023/09/18 00:15:22;;;;;;;13.98;9.30;;;;;;;11.13;nan;99877.53;5116353;27;20404;-67
2023/09/18 00:17:48;;;;;;;12.15;8.85;;;;;;;11.20;nan;99853.94;5113367;27;20034;-67
2023/09/18 00:20:13;;;;;;;13.95;7.85;;;;;;;11.22;nan;99855.53;5115164;27;20405;-67
2023/09/18 00:22:38;;;;;;;14.05;8.77;;;;;;;11.26;nan;99875.72;5079601;27;20522;-68
2023/09/18 00:25:04;;;;;;;10.52;7.63;;;;;;;11.31;nan;99850.50;5115807;27;20049;-67
2023/09/18 00:27:30;;;;;;;12.82;7.80;;;;;;;11.36;nan;99854.56;5096811;27;20042;-66
2023/09/18 00:29:55;;;;;;;11.40;8.32;;;;;;;11.38;nan;99847.28;5095819;27;20058;-67
2023/09/18 00:32:21;;;;;;;15.85;8.93;;;;;;;11.41;nan;99855.06;5115564;27;20035;-69
2023/09/18 00:34:46;;;;;;;11.30;7.60;;;;;;;11.43;nan;99860.28;5115528;27;20050;-68
2023/09/18 00:37:12;;;;;;;10.80;7.63;;;;;;;11.42;nan;99847.91;5097152;27;20039;-68
2023/09/18 00:39:37;;;;;;;12.18;8.20;;;;;;;11.44;nan;99867.34;5115717;27;20043;-67
2023/09/18 00:42:03;;;;;;;12.75;7.45;;;;;;;11.48;nan;99847.47;5115912;27;20764;-70
2023/09/18 00:44:28;;;;;;;13.02;7.93;;;;;;;11.52;nan;99855.16;5090488;27;20045;-69
2023/09/18 00:46:55;;;;;;;12.15;7.55;;;;;;;11.56;nan;99850.44;5115373;27;20045;-67
2023/09/18 00:49:22;;;;;;;8.13;7.03;;;;;;;11.63;nan;99857.03;5096168;27;20505;-68
2023/09/18 00:51:47;;;;;;;12.00;7.05;;;;;;;11.68;nan;99865.59;5114857;27;20042;-69
2023/09/18 00:54:16;;;;;;;14.20;7.85;;;;;;;11.73;nan;99858.09;5063277;28;20043;-68
2023/09/18 00:56:41;;;;;;;10.77;7.72;;;;;;;11.78;nan;99839.94;5098923;27;20046;-71
2023/09/18 00:59:08;;;;;;;10.88;8.00;;;;;;;11.81;nan;99855.75;5114578;27;20030;-69
2023/09/18 01:01:34;;;;;;;9.85;6.63;;;;;;;11.84;nan;99850.19;5079777;27;20042;-72
2023/09/18 01:03:59;;;;;;;13.18;7.50;;;;;;;11.87;nan;99843.75;5072288;28;20054;-69
2023/09/18 01:06:27;;;;;;;9.27;7.00;;;;;;;11.95;nan;99842.25;5092353;28;20038;-70
2023/09/18 01:08:54;;;;;;;13.05;7.35;;;;;;;11.95;nan;99842.25;5094759;28;20505;-70
2023/09/18 01:11:22;;;;;;;12.27;7.13;;;;;;;11.96;nan;99853.78;5094782;28;20059;-69
2023/09/18 01:13:59;;;;;;;9.27;6.45;;;;;;;12.03;nan;99843.47;5093322;28;20035;-70
2023/09/18 01:16:31;;;;;;;8.50;6.82;;;;;;;11.99;nan;99830.34;5093617;28;20516;-69
2023/09/18 01:18:56;;;;;;;10.05;6.75;;;;;;;12.01;nan;99824.88;5094766;28;20129;-68
2023/09/18 01:21:21;;;;;;;8.82;6.07;;;;;;;11.93;nan;99817.44;5093755;28;20054;-70
2023/09/18 01:23:47;;;;;;;10.95;7.00;;;;;;;11.89;nan;99815.97;5075755;28;20046;-68
2023/09/18 01:26:13;;;;;;;9.88;6.30;;;;;;;11.89;nan;99821.31;5076788;28;20502;-69
2023/09/18 01:28:39;;;;;;;15.70;6.50;;;;;;;11.88;nan;99814.25;5076092;28;20043;-71
2023/09/18 01:31:04;;;;;;;13.57;7.38;;;;;;;11.84;nan;99825.31;5114924;27;20050;-70
2023/09/18 01:33:31;;;;;;;9.35;6.38;;;;;;;11.75;nan;99808.09;5096959;27;20038;-69
2023/09/18 01:35:58;;;;;;;14.40;7.80;;;;;;;11.73;nan;99852.75;5088413;27;20049;-70
2023/09/18 01:38:25;;;;;;;12.45;7.85;;;;;;;11.77;nan;99821.34;5094587;27;20035;-70
2023/09/18 01:40:53;;;;;;;11.48;6.90;;;;;;;11.79;nan;99830.13;5091353;27;20773;-72
2023/09/18 01:43:19;;;;;;;11.10;7.55;;;;;;;11.77;nan;99838.22;5115717;27;20035;-72
2023/09/18 01:45:45;;;;;;;11.07;7.00;;;;;;;11.74;nan;99827.72;5101116;27;20053;-67
2023/09/18 01:48:10;;;;;;;10.52;6.10;;;;;;;11.71;nan;99806.63;5100335;27;20035;-68
2023/09/18 01:50:42;;;;;;;9.95;7.38;;;;;;;11.68;nan;99814.84;5066039;27;20051;-68
2023/09/18 01:53:07;;;;;;;8.77;6.40;;;;;;;11.64;nan;99813.34;5118546;27;20031;-73
2023/09/18 01:55:32;;;;;;;11.25;7.05;;;;;;;11.60;nan;99819.91;5118485;27;20046;-73
2023/09/18 01:57:58;;;;;;;10.38;7.07;;;;;;;11.60;nan;99814.56;5062594;27;20421;-74
2023/09/18 02:00:24;;;;;;;10.55;7.07;;;;;;;11.57;nan;99841.47;5080983;27;20077;-75
2023/09/18 02:02:50;;;;;;;10.82;6.57;;;;;;;11.57;nan;99809.44;5121103;27;20401;-75
2023/09/18 02:05:15;;;;;;;11.07;6.70;;;;;;;11.58;nan;99806.66;5120901;27;20050;-75
2023/09/18 02:07:40;;;;;;;12.38;7.82;;;;;;;11.62;nan;99801.97;5101925;27;20062;-77
2023/09/18 02:10:06;;;;;;;9.00;6.97;;;;;;;11.65;nan;99807.06;5102259;27;20488;-77
2023/09/18 02:12:32;;;;;;;11.07;6.75;;;;;;;11.71;nan;99795.06;5088979;27;20035;-76
2023/09/18 02:15:06;;;;;;;9.30;6.55;;;;;;;11.73;nan;99795.81;5081534;27;20047;-75
2023/09/18 02:17:32;;;;;;;11.07;7.80;;;;;;;11.75;nan;99784.06;5115543;27;20045;-74
2023/09/18 02:19:57;;;;;;;9.23;6.88;;;;;;;11.78;nan;99778.50;5102912;27;20404;-74
2023/09/18 02:22:22;;;;;;;11.52;6.07;;;;;;;11.81;nan;99782.78;5070078;27;20054;-75
2023/09/18 02:24:48;;;;;;;11.95;8.25;;;;;;;11.83;nan;99792.38;5120229;27;20524;-76
2023/09/18 02:27:13;;;;;;;11.23;6.85;;;;;;;11.83;nan;99789.72;5066919;27;20050;-76
2023/09/18 02:29:38;;;;;;;9.75;7.10;;;;;;;11.79;nan;99777.53;5101331;27;20066;-74
2023/09/18 02:32:04;;;;;;;10.48;6.35;;;;;;;11.76;nan;99780.44;5119886;27;20034;-73
2023/09/18 02:34:29;;;;;;;8.10;5.93;;;;;;;11.73;nan;99791.34;5120578;27;20049;-73
2023/09/18 02:36:54;;;;;;;12.65;6.13;;;;;;;11.70;nan;99782.69;5084538;27;20404;-73
2023/09/18 02:39:20;;;;;;;8.68;6.07;;;;;;;11.61;nan;99773.53;5101605;27;20047;-73
2023/09/18 02:41:46;;;;;;;8.10;6.13;;;;;;;11.56;nan;99787.22;5120368;27;20039;-75
2023/09/18 02:44:11;;;;;;;10.93;6.30;;;;;;;11.50;nan;99781.50;5100296;27;20034;-73
2023/09/18 02:46:37;;;;;;;10.57;6.50;;;;;;;11.46;nan;99775.50;5084137;27;20062;-74
2023/09/18 02:49:03;;;;;;;9.40;6.57;;;;;;;11.41;nan;99800.81;5100468;27;20050;-76
2023/09/18 02:51:28;;;;;;;10.30;6.90;;;;;;;11.44;nan;99787.25;5099580;27;20067;-74
2023/09/18 02:53:53;;;;;;;13.13;7.32;;;;;;;11.47;nan;99779.88;5099939;27;20382;-74
2023/09/18 02:56:18;;;;;;;10.63;6.43;;;;;;;11.50;nan;99785.00;5077401;27;20054;-72
2023/09/18 02:58:44;;;;;;;11.95;7.03;;;;;;;11.50;nan;99802.84;5082167;27;20047;-72
2023/09/18 03:01:09;;;;;;;10.80;6.95;;;;;;;11.53;nan;99775.91;5097575;27;20045;-72
2023/09/18 03:03:35;;;;;;;10.73;6.82;;;;;;;11.54;nan;99777.59;5078192;27;20051;-73
2023/09/18 03:06:02;;;;;;;10.35;6.95;;;;;;;11.55;nan;99773.97;5096021;27;20050;-72
2023/09/18 03:08:28;;;;;;;11.80;6.80;;;;;;;11.56;nan;99773.00;5081202;27;20051;-70
2023/09/18 03:10:54;;;;;;;10.45;7.00;;;;;;;11.55;nan;99773.97;5081157;27;20424;-72
2023/09/18 03:13:21;;;;;;;10.50;7.13;;;;;;;11.56;nan;99781.03;5096179;27;20039;-71
2023/09/18 03:15:47;;;;;;;15.13;7.55;;;;;;;11.55;nan;99782.84;5117502;27;20049;-70
2023/09/18 03:18:13;;;;;;;19.17;11.50;;;;;;;11.57;nan;99778.25;5061436;27;20039;-72
2023/09/18 03:20:40;;;;;;;11.48;7.68;;;;;;;11.59;nan;99773.66;5097076;27;20034;-71
2023/09/18 03:23:06;;;;;;;11.70;6.13;;;;;;;11.61;nan;99778.88;5098920;27;20115;-73
2023/09/18 03:25:31;;;;;;;9.68;6.53;;;;;;;11.65;nan;99783.88;5096032;27;20523;-73
2023/09/18 03:27:57;;;;;;;11.50;6.55;;;;;;;11.71;nan;99787.91;5098574;27;20035;-73
2023/09/18 03:30:28;;;;;;;9.10;6.43;;;;;;;11.78;nan;99781.19;5093921;27;20468;-71
2023/09/18 03:32:54;;;;;;;8.50;5.97;;;;;;;11.83;nan;99781.72;5097007;27;20039;-72
2023/09/18 03:35:21;;;;;;;12.80;7.88;;;;;;;11.85;nan;99765.56;5080961;27;20050;-73
2023/09/18 03:37:49;;;;;;;10.63;6.47;;;;;;;11.91;nan;99781.97;5098124;27;20496;-72
2023/09/18 03:40:16;;;;;;;11.50;7.10;;;;;;;11.95;nan;99788.81;5081962;27;20046;-74
2023/09/18 03:42:42;;;;;;;8.88;6.57;;;;;;;11.97;nan;99786.84;5099910;27;20030;-74
2023/09/18 03:45:08;;;;;;;11.10;6.45;;;;;;;11.99;nan;99800.94;5118049;27;20397;-74
2023/09/18 03:47:41;;;;;;;12.18;7.38;;;;;;;12.05;nan;99777.44;5060216;27;20454;-72
2023/09/18 03:50:08;;;;;;;8.77;6.15;;;;;;;12.09;nan;99778.88;5095026;27;20046;-71
2023/09/18 03:52:33;;;;;;;10.02;6.78;;;;;;;12.13;nan;99770.53;5080860;27;20141;-74
2023/09/18 03:54:59;;;;;;;8.35;6.10;;;;;;;12.17;nan;99771.16;5066702;27;20055;-75
2023/09/18 03:57:24;;;;;;;7.80;5.95;;;;;;;12.21;nan;99773.47;5097278;27;20046;-76
2023/09/18 03:59:50;;;;;;;8.90;6.45;;;;;;;12.26;nan;99778.47;5117797;27;20046;-75
2023/09/18 04:02:16;;;;;;;9.77;6.20;;;;;;;12.32;nan;99777.97;5099489;27;20752;-74
2023/09/18 04:04:41;;;;;;;13.23;6.82;;;;;;;12.38;nan;99806.94;5063574;27;20054;-73
2023/09/18 04:07:07;;;;;;;9.20;5.93;;;;;;;12.45;nan;99776.06;5116333;27;20404;-74
2023/09/18 04:09:34;;;;;;;10.68;5.97;;;;;;;12.50;nan;99773.91;5098065;27;20061;-74
2023/09/18 04:12:00;;;;;;;8.70;7.28;;;;;;;12.55;nan;99766.38;5097968;27;20138;-73
2023/09/18 04:14:26;;;;;;;11.15;7.30;;;;;;;12.57;nan;99784.97;5097872;27;20042;-74
2023/09/18 04:16:51;;;;;;;10.52;7.13;;;;;;;12.64;nan;99765.66;5097923;27;20046;-74
2023/09/18 04:19:16;;;;;;;10.85;6.78;;;;;;;12.71;nan;99761.53;5097889;27;20046;-73
2023/09/18 04:21:42;;;;;;;13.68;7.47;;;;;;;12.79;nan;99763.59;5081157;27;20034;-74
2023/09/18 04:24:07;;;;;;;8.93;6.28;;;;;;;12.86;nan;99785.41;5097784;27;20035;-74
2023/09/18 04:26:33;;;;;;;8.00;6.00;;;;;;;12.96;nan;99724.81;5116217;27;20057;-74
2023/09/18 04:29:00;;;;;;;9.50;6.25;;;;;;;13.06;nan;99776.63;5097942;27;20051;-74
2023/09/18 04:31:27;;;;;;;12.18;6.40;;;;;;;13.17;nan;99783.84;5097747;27;20049;-74
2023/09/18 04:33:52;;;;;;;15.35;7.28;;;;;;;13.23;nan;99757.41;5098150;27;20489;-74
2023/09/18 04:36:17;;;;;;;11.20;7.25;;;;;;;13.31;nan;99765.72;5080016;27;20069;-76
2023/09/18 04:38:43;;;;;;;9.90;5.57;;;;;;;13.39;nan;99755.22;5080969;27;20053;-76
2023/09/18 04:41:10;;;;;;;9.57;6.43;;;;;;;13.44;nan;99749.47;5080743;27;20042;-77
2023/09/18 04:43:35;;;;;;;7.85;6.10;;;;;;;13.43;nan;99747.78;5081485;27;20061;-76
2023/09/18 04:46:04;;;;;;;13.60;8.75;;;;;;;13.52;nan;99756.91;5099066;27;20039;-76
2023/09/18 04:48:30;;;;;;;11.05;7.15;;;;;;;13.59;nan;99750.03;5110930;27;20023;-74
2023/09/18 04:50:56;;;;;;;11.10;7.22;;;;;;;13.63;nan;99744.31;5122598;27;20049;-74
2023/09/18 04:53:21;;;;;;;9.73;6.65;;;;;;;13.74;nan;99746.97;5088764;27;20056;-76
2023/09/18 04:55:49;;;;;;;8.05;5.88;;;;;;;13.84;nan;99762.28;5105401;27;20043;-75
2023/09/18 04:58:15;;;;;;;9.30;6.32;;;;;;;13.93;nan;99754.31;5125321;27;20042;-76
2023/09/18 05:00:41;;;;;;;10.15;6.50;;;;;;;14.02;nan;99771.44;5103792;27;20047;-76
2023/09/18 05:03:08;;;;;;;10.73;6.45;;;;;;;14.13;nan;99764.22;5098463;27;20045;-75
2023/09/18 05:05:33;;;;;;;10.88;6.95;;;;;;;14.22;nan;99741.13;5098900;27;20042;-75
2023/09/18 05:07:58;;;;;;;11.88;7.22;;;;;;;14.31;nan;99744.88;5094484;27;20051;-76
2023/09/18 05:10:23;;;;;;;11.65;6.60;;;;;;;14.40;nan;99749.47;5096311;27;20047;-75
2023/09/18 05:12:50;;;;;;;8.80;5.72;;;;;;;14.41;nan;99756.56;5094446;28;20051;-74
2023/09/18 05:15:16;;;;;;;10.52;6.82;;;;;;;14.46;nan;99754.31;5095728;28;20042;-73
2023/09/18 05:17:44;;;;;;;10.25;6.90;;;;;;;14.55;nan;99768.78;5096714;27;20043;-73
2023/09/18 05:20:13;;;;;;;13.57;6.85;;;;;;;14.65;nan;99758.97;5099385;27;20139;-74
2023/09/18 05:22:39;;;;;;;10.40;6.72;;;;;;;14.63;nan;99760.94;5099196;27;20508;-73
2023/09/18 05:25:05;;;;;;;8.75;5.75;;;;;;;14.78;nan;99776.56;5096993;27;20051;-73
2023/09/18 05:27:31;;;;;;;8.02;6.28;;;;;;;15.07;nan;99760.56;5099985;27;20035;-72
2023/09/18 05:29:56;;;;;;;10.85;7.13;;;;;;;15.43;nan;99793.22;5099309;27;20055;-72
2023/09/18 05:32:21;;;;;;;8.48;5.88;;;;;;;15.78;nan;99771.28;5098998;27;20508;-73
2023/09/18 05:34:46;;;;;;;13.65;6.60;;;;;;;16.14;nan;99778.63;5098997;27;20047;-73
2023/09/18 05:37:12;;;;;;;10.98;5.95;;;;;;;16.66;nan;99757.66;5080676;27;20050;-73
2023/09/18 05:39:37;;;;;;;11.88;6.72;;;;;;;17.18;nan;99758.88;5098833;27;20059;-73
2023/09/18 05:42:02;;;;;;;9.98;6.70;;;;;;;17.73;nan;99754.34;5099359;27;20536;-73
2023/09/18 05:44:27;;;;;;;8.43;6.00;;;;;;;18.34;nan;99752.72;5099000;27;20043;-74
2023/09/18 05:46:52;;;;;;;9.70;6.43;;;;;;;18.93;nan;99765.50;5098876;27;20520;-72
2023/09/18 05:49:18;;;;;;;13.18;6.45;;;;;;;19.68;nan;99762.97;5098704;27;20042;-72
2023/09/18 05:51:43;;;;;;;8.68;6.25;;;;;;;20.55;nan;99755.13;5097666;27;20541;-73
2023/09/18 05:54:09;;;;;;;7.85;6.07;;;;;;;21.22;nan;99754.84;5098488;27;20537;-73
2023/09/18 05:56:34;;;;;;;11.32;7.70;;;;;;;21.82;nan;99746.91;5099083;27;20058;-73
2023/09/18 05:58:59;;;;;;;9.95;7.03;;;;;;;22.42;nan;99743.44;5101440;27;20043;-76
2023/09/18 06:01:25;;;;;;;8.07;6.18;;;;;;;22.99;nan;99732.03;5099076;27;20043;-75
2023/09/18 06:03:50;;;;;;;8.25;6.10;;;;;;;23.17;nan;99744.22;5096293;27;20132;-74
2023/09/18 06:06:15;;;;;;;8.23;6.55;;;;;;;23.08;nan;99742.63;5098243;27;20035;-74
2023/09/18 06:08:40;;;;;;;9.27;5.97;;;;;;;22.99;nan;99751.06;5097721;27;20074;-79
2023/09/18 06:11:05;;;;;;;7.65;6.32;;;;;;;23.01;nan;99735.44;5101534;27;20042;-77
2023/09/18 06:13:31;;;;;;;8.73;6.82;;;;;;;23.09;nan;99738.03;5098753;27;20054;-75
2023/09/18 06:15:56;;;;;;;8.55;5.90;;;;;;;23.21;nan;99738.41;5098623;27;20406;-75
2023/09/18 06:18:22;;;;;;;8.63;5.32;;;;;;;23.37;nan;99728.16;5098065;27;20039;-73
2023/09/18 06:20:48;;;;;;;10.13;6.03;;;;;;;23.47;nan;99727.88;5099528;27;20045;-77
2023/09/18 06:23:13;;;;;;;6.70;5.65;;;;;;;23.59;nan;99729.09;5082689;27;20041;-75
2023/09/18 06:25:40;;;;;;;7.50;5.63;;;;;;;23.95;nan;99755.47;5099266;27;20039;-77
2023/09/18 06:28:05;;;;;;;8.43;6.13;;;;;;;24.17;nan;99732.66;5099387;27;20042;-76
2023/09/18 06:30:32;;;;;;;8.77;5.55;;;;;;;23.96;nan;99730.78;5099253;27;20054;-76
2023/09/18 06:32:58;;;;;;;9.48;5.97;;;;;;;23.41;nan;99747.69;5099525;27;20054;-77
2023/09/18 06:35:23;;;;;;;7.22;5.82;;;;;;;22.97;nan;99734.94;5098933;27;20046;-77
2023/09/18 06:37:48;;;;;;;7.63;6.10;;;;;;;22.60;nan;99738.50;5082447;27;20517;-77
2023/09/18 06:40:13;;;;;;;8.48;6.15;;;;;;;22.24;nan;99770.91;5099947;27;20058;-76
2023/09/18 06:42:39;;;;;;;16.27;6.30;;;;;;;21.88;nan;99745.38;5098813;27;20061;-76
2023/09/18 06:45:06;;;;;;;8.13;5.65;;;;;;;21.48;nan;99790.66;5107374;27;20057;-76
2023/09/18 06:47:33;;;;;;;10.68;6.70;;;;;;;21.07;nan;99780.97;5099873;27;20043;-75
2023/09/18 06:49:59;;;;;;;11.45;6.55;;;;;;;20.74;nan;99750.38;5098441;27;20035;-75
2023/09/18 06:52:26;;;;;;;8.85;6.15;;;;;;;20.43;nan;99769.19;5098388;27;20054;-76
2023/09/18 06:54:52;;;;;;;7.95;5.72;;;;;;;20.37;nan;99743.63;5098506;27;20047;-76
2023/09/18 06:57:17;;;;;;;10.68;6.10;;;;;;;20.59;nan;99751.06;5099379;27;20410;-76
2023/09/18 06:59:42;;;;;;;10.95;5.55;;;;;;;21.06;nan;99758.44;5097408;27;20039;-77
2023/09/18 07:02:07;;;;;;;8.20;5.75;;;;;;;21.64;nan;99757.22;5098182;27;20038;-76
2023/09/18 07:04:32;;;;;;;9.60;5.80;;;;;;;21.97;nan;99758.69;5097569;27;20052;-75
2023/09/18 07:06:58;;;;;;;10.57;6.53;;;;;;;22.97;nan;99751.25;5099305;27;20057;-76
2023/09/18 07:09:25;;;;;;;8.38;5.88;;;;;;;24.99;nan;99776.59;5115158;27;20793;-75
2023/09/18 07:11:50;;;;;;;8.05;6.20;;;;;;;27.06;nan;99749.50;5118672;27;20491;-75
2023/09/18 07:14:16;;;;;;;8.38;5.82;;;;;;;28.50;nan;99752.63;5099518;27;20073;-77
2023/09/18 07:16:41;;;;;;;9.10;6.95;;;;;;;28.80;nan;99739.09;5118694;27;20043;-77
2023/09/18 07:19:07;;;;;;;7.68;6.13;;;;;;;28.16;nan;99744.81;5120906;27;20034;-77
2023/09/18 07:21:34;;;;;;;8.32;5.70;;;;;;;27.04;nan;99773.47;5100993;27;20057;-76
2023/09/18 07:24:00;;;;;;;7.65;5.97;;;;;;;25.81;nan;99756.69;5100045;27;20042;-76
2023/09/18 07:26:25;;;;;;;9.45;5.45;;;;;;;24.65;nan;99771.91;5118117;27;20047;-74
2023/09/18 07:28:50;;;;;;;8.35;5.72;;;;;;;23.72;nan;99788.28;5118850;27;20050;-75
2023/09/18 07:31:15;;;;;;;10.52;6.55;;;;;;;23.13;nan;99786.44;5117469;27;20381;-75
2023/09/18 07:33:41;;;;;;;11.60;6.72;;;;;;;22.78;nan;99807.03;5117421;27;20039;-74
2023/09/18 07:36:07;;;;;;;14.35;7.22;;;;;;;22.55;nan;99773.56;5117783;27;20042;-75
2023/09/18 07:38:33;;;;;;;12.38;7.50;;;;;;;22.35;nan;99777.78;5098838;27;20042;-76
2023/09/18 07:40:58;;;;;;;12.10;6.20;;;;;;;22.15;nan;99771.16;5098076;27;20123;-75
2023/09/18 07:43:26;;;;;;;8.10;5.88;;;;;;;22.11;nan;99775.28;5096970;27;20054;-76
2023/09/18 07:45:53;;;;;;;13.02;6.53;;;;;;;22.29;nan;99778.53;5098814;27;20473;-75
2023/09/18 07:48:19;;;;;;;12.85;6.18;;;;;;;22.60;nan;99781.16;5098415;27;20505;-75
2023/09/18 07:50:45;;;;;;;9.10;6.30;;;;;;;22.76;nan;99784.59;5097908;27;20054;-74
2023/09/18 07:53:10;;;;;;;14.65;6.78;;;;;;;23.13;nan;99782.88;5098414;27;20050;-74
2023/09/18 07:55:35;;;;;;;10.88;6.20;;;;;;;24.80;nan;99789.03;5117003;27;20046;-74
2023/09/18 07:58:01;;;;;;;16.85;6.88;;;;;;;26.86;nan;99770.53;5116764;27;20045;-74
2023/09/18 08:00:26;;;;;;;11.55;6.40;;;;;;;29.08;nan;99773.47;5116880;27;20068;-74
2023/09/18 08:02:58;;;;;;;9.32;6.05;;;;;;;31.00;nan;99778.06;5116759;27;20056;-75
2023/09/18 08:05:27;;;;;;;9.90;5.95;;;;;;;31.81;nan;99776.34;5117929;27;20149;-75
2023/09/18 08:07:54;;;;;;;8.75;6.85;;;;;;;31.11;nan;99787.44;5111225;27;20050;-74
2023/09/18 08:10:19;;;;;;;9.00;6.28;;;;;;;29.71;nan;99787.78;5139590;27;20046;-75
2023/09/18 08:12:44;;;;;;;9.43;6.43;;;;;;;28.12;nan;99771.00;5121616;27;20558;-76
2023/09/18 08:15:11;;;;;;;6.95;6.07;;;;;;;26.69;nan;99774.72;5138803;27;20038;-74
2023/09/18 08:17:36;;;;;;;9.32;7.13;;;;;;;25.52;nan;99783.22;5122472;27;20023;-75
2023/09/18 08:20:01;;;;;;;14.50;6.78;;;;;;;24.53;nan;99779.78;5121162;27;20057;-76
2023/09/18 08:22:28;;;;;;;14.95;6.80;;;;;;;23.71;nan;99798.34;5139266;27;20047;-79
2023/09/18 08:24:53;;;;;;;10.25;6.93;;;;;;;23.13;nan;99801.91;5122535;27;20060;-74
2023/09/18 08:27:19;;;;;;;10.73;6.75;;;;;;;22.63;nan;99813.41;5123280;27;20038;-75
2023/09/18 08:29:46;;;;;;;11.07;7.80;;;;;;;22.19;nan;99826.81;5122960;27;20019;-74
2023/09/18 08:32:12;;;;;;;11.30;6.90;;;;;;;21.90;nan;99808.44;5122567;27;20038;-77
2023/09/18 08:34:37;;;;;;;11.18;7.15;;;;;;;21.75;nan;99797.50;5117967;27;20061;-77
2023/09/18 08:37:03;;;;;;;12.25;6.30;;;;;;;21.84;nan;99823.56;5118812;27;20046;-76
2023/09/18 08:39:29;;;;;;;13.63;6.90;;;;;;;22.15;nan;99801.03;5138094;27;20039;-77
2023/09/18 08:41:59;;;;;;;11.30;7.13;;;;;;;22.50;nan;99791.44;5099877;27;20046;-77
2023/09/18 08:44:26;;;;;;;11.75;6.45;;;;;;;22.97;nan;99805.63;5122685;27;20038;-77
2023/09/18 08:46:52;;;;;;;10.07;6.00;;;;;;;23.71;nan;99778.44;5120140;27;20057;-76
2023/09/18 08:49:20;;;;;;;9.75;6.22;;;;;;;24.04;nan;99801.44;5120472;27;20051;-77
2023/09/18 08:51:46;;;;;;;12.52;6.20;;;;;;;24.01;nan;99782.78;5133307;27;20047;-76
2023/09/18 08:54:11;;;;;;;8.82;6.13;;;;;;;23.68;nan;99778.84;5086706;27;20057;-75
2023/09/18 08:56:37;;;;;;;9.55;6.75;;;;;;;23.16;nan;99782.47;5100458;27;20034;-76
2023/09/18 08:59:02;;;;;;;10.32;6.95;;;;;;;22.61;nan;99783.69;5100609;27;20043;-75
2023/09/18 09:01:27;;;;;;;14.13;8.10;;;;;;;22.19;nan;99799.66;5100654;27;20049;-76
2023/09/18 09:03:53;;;;;;;8.30;6.32;;;;;;;21.86;nan;99805.25;5118363;27;20409;-75
2023/09/18 09:06:20;;;;;;;10.55;5.95;;;;;;;21.67;nan;99784.81;5119262;27;20038;-76
2023/09/18 09:08:45;;;;;;;14.50;6.40;;;;;;;21.64;nan;99796.03;5118942;27;20053;-76
2023/09/18 09:11:10;;;;;;;10.25;6.50;;;;;;;21.56;nan;99793.34;5119529;27;20050;-76
2023/09/18 09:13:35;;;;;;;12.57;6.97;;;;;;;21.36;nan;99786.66;5100730;27;20527;-76
2023/09/18 09:16:01;;;;;;;10.07;6.28;;;;;;;21.06;nan;99801.78;5124765;27;20038;-76
2023/09/18 09:18:28;;;;;;;10.48;6.65;;;;;;;20.80;nan;99798.44;5119997;27;20062;-76
2023/09/18 09:20:57;;;;;;;8.95;7.05;;;;;;;20.56;nan;99789.31;5121670;27;20045;-74
2023/09/18 09:23:23;;;;;;;11.48;7.35;;;;;;;20.35;nan;99812.47;5100696;27;20047;-77
2023/09/18 09:25:49;;;;;;;12.35;6.93;;;;;;;20.24;nan;99757.63;5101333;27;20035;-76
2023/09/18 09:28:14;;;;;;;9.05;6.90;;;;;;;20.16;nan;99809.06;5099784;27;20059;-75
2023/09/18 09:30:40;;;;;;;8.20;6.47;;;;;;;20.05;nan;99832.91;5097941;28;20046;-74
2023/09/18 09:33:07;;;;;;;10.75;7.03;;;;;;;19.94;nan;99813.25;5079865;28;20055;-75
2023/09/18 09:35:34;;;;;;;17.00;7.63;;;;;;;19.81;nan;99829.13;5096794;28;20039;-75
2023/09/18 09:38:06;;;;;;;13.98;6.65;;;;;;;19.77;nan;99829.59;5060607;28;20051;-75
2023/09/18 09:40:32;;;;;;;10.80;6.88;;;;;;;19.81;nan;99810.19;5098546;27;20389;-74
2023/09/18 09:43:01;;;;;;;12.18;7.15;;;;;;;19.87;nan;99798.69;5097607;27;20409;-74
2023/09/18 09:45:29;;;;;;;15.00;6.65;;;;;;;19.89;nan;99795.81;5097889;28;20377;-75
2023/09/18 09:47:56;;;;;;;12.80;7.20;;;;;;;19.84;nan;99804.44;5095933;28;20042;-76
2023/09/18 09:50:21;;;;;;;10.20;6.80;;;;;;;19.79;nan;99805.94;5115023;27;20076;-75
2023/09/18 09:52:50;;;;;;;14.20;7.07;;;;;;;19.74;nan;99798.34;5117413;27;20405;-76
2023/09/18 09:55:20;;;;;;;12.85;7.10;;;;;;;19.71;nan;99804.06;5115773;27;20042;-75
2023/09/18 09:57:51;;;;;;;10.65;7.20;;;;;;;19.70;nan;99829.41;5097004;27;20042;-76
2023/09/18 10:00:36;;;;;;;11.25;6.20;;;;;;;19.63;nan;99801.34;5113969;27;20041;-75
2023/09/18 10:03:04;;;;;;;13.70;6.90;;;;;;;19.59;nan;99816.19;5098272;27;20046;-77
2023/09/18 10:05:32;;;;;;;10.25;6.57;;;;;;;19.58;nan;99814.50;5102733;27;20048;-77
2023/09/18 10:07:59;;;;;;;9.55;6.90;;;;;;;19.60;nan;99806.22;5120493;27;20434;-76
2023/09/18 10:10:31;;;;;;;14.35;6.95;;;;;;;19.68;nan;99807.09;5085336;27;20038;-76
2023/09/18 10:13:01;;;;;;;10.73;6.97;;;;;;;19.74;nan;99808.31;5120236;27;20046;-75
2023/09/18 10:15:28;;;;;;;14.23;7.45;;;;;;;19.84;nan;99812.56;5100374;27;20034;-77
2023/09/18 10:17:56;;;;;;;10.23;7.03;;;;;;;19.93;nan;99813.44;5120693;27;20042;-79
2023/09/18 10:20:26;;;;;;;10.80;7.28;;;;;;;19.87;nan;99800.53;5081421;27;20066;-76
2023/09/18 10:22:59;;;;;;;11.57;7.38;;;;;;;19.83;nan;99839.78;5116456;27;20041;-76
2023/09/18 10:25:28;;;;;;;11.85;7.68;;;;;;;19.75;nan;99810.81;5119728;27;20159;-77
2023/09/18 10:28:02;;;;;;;15.35;7.85;;;;;;;19.71;nan;99804.06;5100869;27;20042;-77
2023/09/18 10:30:32;;;;;;;10.48;7.13;;;;;;;19.76;nan;99801.69;5102508;27;20039;-76
2023/09/18 10:33:00;;;;;;;10.00;6.65;;;;;;;19.86;nan;99801.59;5070288;27;20050;-76
2023/09/18 10:35:25;;;;;;;10.70;7.05;;;;;;;19.98;nan;99802.13;5121163;27;20042;-77
2023/09/18 10:37:54;;;;;;;11.07;7.38;;;;;;;20.13;nan;99798.56;5102392;27;20428;-77
2023/09/18 10:40:21;;;;;;;10.63;7.47;;;;;;;20.24;nan;99757.63;5121733;27;20043;-77
2023/09/18 10:42:48;;;;;;;13.68;7.68;;;;;;;20.42;nan;99789.16;5103631;27;20042;-77
2023/09/18 10:45:15;;;;;;;11.82;7.53;;;;;;;20.61;nan;99802.38;5085418;27;20408;-75
2023/09/18 10:47:45;;;;;;;12.48;7.82;;;;;;;20.78;nan;99809.44;5119948;27;20524;-75
2023/09/18 10:50:11;;;;;;;12.45;8.05;;;;;;;20.92;nan;99799.78;5081933;27;20053;-75
2023/09/18 10:52:42;;;;;;;15.93;8.05;;;;;;;21.10;nan;99797.72;5118618;27;20054;-75
2023/09/18 10:55:12;;;;;;;14.10;7.90;;;;;;;21.33;nan;99804.09;5118664;27;20547;-77
2023/09/18 10:57:49;;;;;;;10.02;7.57;;;;;;;21.60;nan;99793.84;5083284;27;20133;-75
2023/09/18 11:00:16;;;;;;;13.90;7.60;;;;;;;21.88;nan;99788.78;5119474;27;20447;-76
2023/09/18 11:02:41;;;;;;;12.88;8.10;;;;;;;22.00;nan;99787.41;5119910;27;20042;-76
2023/09/18 11:05:07;;;;;;;10.82;7.32;;;;;;;22.01;nan;99805.34;5101529;27;20043;-78
2023/09/18 11:07:32;;;;;;;14.35;8.23;;;;;;;22.02;nan;99782.59;5100395;27;20058;-76
2023/09/18 11:09:57;;;;;;;14.15;7.88;;;;;;;22.02;nan;99786.16;5116924;27;20047;-75
2023/09/18 11:12:43;;;;;;;14.48;7.90;;;;;;;22.24;nan;99784.50;5116049;27;20035;-76
2023/09/18 11:15:10;;;;;;;12.98;8.05;;;;;;;22.05;nan;99793.97;5116956;27;20038;-78
2023/09/18 11:17:38;;;;;;;11.57;8.02;;;;;;;21.94;nan;99774.50;5118573;27;20039;-76
2023/09/18 11:20:11;;;;;;;12.65;8.10;;;;;;;21.72;nan;99774.28;5082235;27;20054;-77
2023/09/18 11:22:55;;;;;;;14.27;7.53;;;;;;;21.57;nan;99780.63;5099146;27;20515;-76
2023/09/18 11:25:37;;;;;;;13.60;7.55;;;;;;;21.18;nan;99778.75;5099325;27;20042;-76
2023/09/18 11:28:07;;;;;;;12.38;7.78;;;;;;;20.62;nan;99788.66;5062802;27;20143;-75
2023/09/18 11:30:36;;;;;;;11.57;7.18;;;;;;;20.29;nan;99793.19;5117992;27;20054;-76
2023/09/18 11:33:06;;;;;;;11.70;7.47;;;;;;;20.12;nan;99790.63;5117932;27;20512;-77
2023/09/18 11:35:33;;;;;;;10.77;7.32;;;;;;;20.17;nan;99793.69;5117955;27;20520;-75
2023/09/18 11:38:11;;;;;;;10.80;7.60;;;;;;;20.46;nan;99793.22;5114759;27;20046;-75
2023/09/18 11:40:38;;;;;;;8.88;6.80;;;;;;;20.57;nan;99782.88;5103763;27;20038;-78